sensor_id;sensor_type;location;lat;lon;timestamp;pressure;altitude;pressure_sealevel;temperature;humidity
23419;BME280;11882;42.522;27.458;2024-02-21T00:02:23;102045.72;;;6.39;nan
23419;BME280;11882;42.522;27.458;2024-02-21T00:04:50;102045.31;;;6.21;nan
23419;BME280;11882;42.522;27.458;2024-02-21T00:07:19;102041.25;;;6.28;nan
23419;BME280;11882;42.522;27.458;2024-02-21T00:09:46;102051.72;;;6.41;nan
23419;BME280;11882;42.522;27.458;2024-02-21T00:12:13;102055.53;;;6.26;nan
23419;BME280;11882;42.522;27.458;2024-02-21T00:14:40;102059.34;;;6.10;nan
23419;BME280;11882;42.522;27.458;2024-02-21T00:17:07;102062.41;;;5.93;nan
23419;BME280;11882;42.522;27.458;2024-02-21T00:19:35;102061.97;;;5.87;nan
23419;BME280;11882;42.522;27.458;2024-02-21T00:22:02;102055.59;;;6.02;nan
23419;BME280;11882;42.522;27.458;2024-02-21T00:24:31;102052.13;;;6.12;nan
23419;BME280;11882;42.522;27.458;2024-02-21T00:26:58;102048.75;;;6.10;nan
23419;BME280;11882;42.522;27.458;2024-02-21T00:29:25;102045.47;;;5.96;nan
23419;BME280;11882;42.522;27.458;2024-02-21T00:31:53;102040.00;;;5.86;nan
23419;BME280;11882;42.522;27.458;2024-02-21T00:34:20;102042.53;;;5.88;nan
23419;BME280;11882;42.522;27.458;2024-02-21T00:36:47;102042.03;;;6.06;nan
23419;BME280;11882;42.522;27.458;2024-02-21T00:39:15;102038.16;;;5.99;nan
23419;BME280;11882;42.522;27.458;2024-02-21T00:41:44;102030.16;;;5.88;nan
23419;BME280;11882;42.522;27.458;2024-02-21T00:44:11;102033.22;;;5.71;nan
23419;BME280;11882;42.522;27.458;2024-02-21T00:46:38;102023.34;;;5.62;nan
23419;BME280;11882;42.522;27.458;2024-02-21T00:49:05;102026.91;;;5.85;nan
23419;BME280;11882;42.522;27.458;2024-02-21T00:51:32;102024.13;;;5.99;nan
23419;BME280;11882;42.522;27.458;2024-02-21T00:53:59;102020.56;;;5.87;nan
23419;BME280;11882;42.522;27.458;2024-02-21T00:56:27;102025.06;;;5.74;nan
23419;BME280;11882;42.522;27.458;2024-02-21T00:58:56;102010.38;;;5.59;nan
23419;BME280;11882;42.522;27.458;2024-02-21T01:01:25;102015.25;;;5.52;nan
23419;BME280;11882;42.522;27.458;2024-02-21T01:03:52;102014.91;;;5.80;nan
23419;BME280;11882;42.522;27.458;2024-02-21T01:06:20;102008.31;;;5.86;nan
23419;BME280;11882;42.522;27.458;2024-02-21T01:08:47;102008.44;;;5.85;nan
23419;BME280;11882;42.522;27.458;2024-02-21T01:11:14;102004.78;;;5.74;nan
23419;BME280;11882;42.522;27.458;2024-02-21T01:13:42;102005.25;;;5.68;nan
23419;BME280;11882;42.522;27.458;2024-02-21T01:16:10;102004.72;;;5.87;nan
23419;BME280;11882;42.522;27.458;2024-02-21T01:18:38;102009.34;;;5.96;nan
23419;BME280;11882;42.522;27.458;2024-02-21T01:21:06;102009.78;;;5.90;nan
23419;BME280;11882;42.522;27.458;2024-02-21T01:23:34;102004.78;;;5.74;nan
23419;BME280;11882;42.522;27.458;2024-02-21T01:26:01;102003.28;;;5.59;nan
23419;BME280;11882;42.522;27.458;2024-02-21T01:28:28;102010.19;;;5.49;nan
23419;BME280;11882;42.522;27.458;2024-02-21T01:30:56;101999.34;;;5.65;nan
23419;BME280;11882;42.522;27.458;2024-02-21T01:33:25;102010.41;;;5.70;nan
23419;BME280;11882;42.522;27.458;2024-02-21T01:35:52;102009.75;;;5.55;nan
23419;BME280;11882;42.522;27.458;2024-02-21T01:38:19;102011.28;;;5.46;nan
23419;BME280;11882;42.522;27.458;2024-02-21T01:40:46;102003.91;;;5.39;nan
23419;BME280;11882;42.522;27.458;2024-02-21T01:43:18;102009.81;;;5.42;nan
23419;BME280;11882;42.522;27.458;2024-02-21T01:45:48;102010.97;;;5.62;nan
23419;BME280;11882;42.522;27.458;2024-02-21T01:48:17;102004.13;;;5.60;nan
23419;BME280;11882;42.522;27.458;2024-02-21T01:50:46;102000.94;;;5.43;nan
23419;BME280;11882;42.522;27.458;2024-02-21T01:53:14;102000.16;;;5.30;nan
23419;BME280;11882;42.522;27.458;2024-02-21T01:55:44;102005.25;;;5.21;nan
23419;BME280;11882;42.522;27.458;2024-02-21T01:58:12;102003.75;;;5.16;nan
23419;BME280;11882;42.522;27.458;2024-02-21T02:00:42;102007.38;;;5.03;nan
23419;BME280;11882;42.522;27.458;2024-02-21T02:03:10;102007.09;;;4.95;nan
23419;BME280;11882;42.522;27.458;2024-02-21T02:05:45;102013.66;;;4.89;nan
23419;BME280;11882;42.522;27.458;2024-02-21T02:08:13;102019.25;;;4.84;nan
23419;BME280;11882;42.522;27.458;2024-02-21T02:10:41;102019.78;;;4.77;nan
23419;BME280;11882;42.522;27.458;2024-02-21T02:13:08;102018.75;;;4.67;nan
23419;BME280;11882;42.522;27.458;2024-02-21T02:15:39;102021.38;;;4.67;nan
23419;BME280;11882;42.522;27.458;2024-02-21T02:18:07;102020.31;;;4.69;nan
23419;BME280;11882;42.522;27.458;2024-02-21T02:20:35;102020.97;;;4.60;nan
23419;BME280;11882;42.522;27.458;2024-02-21T02:23:07;102022.03;;;4.58;nan
23419;BME280;11882;42.522;27.458;2024-02-21T02:25:37;102025.47;;;4.83;nan
23419;BME280;11882;42.522;27.458;2024-02-21T02:28:04;102025.66;;;4.93;nan
23419;BME280;11882;42.522;27.458;2024-02-21T02:30:32;102017.34;;;4.86;nan
23419;BME280;11882;42.522;27.458;2024-02-21T02:33:02;102021.59;;;4.76;nan
23419;BME280;11882;42.522;27.458;2024-02-21T02:35:29;102029.63;;;4.62;nan
23419;BME280;11882;42.522;27.458;2024-02-21T02:37:56;102019.06;;;4.62;nan
23419;BME280;11882;42.522;27.458;2024-02-21T02:40:23;102020.03;;;4.61;nan
23419;BME280;11882;42.522;27.458;2024-02-21T02:42:52;102018.00;;;4.65;nan
23419;BME280;11882;42.522;27.458;2024-02-21T02:45:21;102024.13;;;4.52;nan
23419;BME280;11882;42.522;27.458;2024-02-21T02:47:49;102018.44;;;4.46;nan
23419;BME280;11882;42.522;27.458;2024-02-21T02:50:16;102019.81;;;4.39;nan
23419;BME280;11882;42.522;27.458;2024-02-21T02:52:43;102016.03;;;4.30;nan
23419;BME280;11882;42.522;27.458;2024-02-21T02:55:11;102015.06;;;4.31;nan
23419;BME280;11882;42.522;27.458;2024-02-21T02:57:38;102012.53;;;4.30;nan
23419;BME280;11882;42.522;27.458;2024-02-21T03:00:10;102013.19;;;4.33;nan
23419;BME280;11882;42.522;27.458;2024-02-21T03:02:39;102019.09;;;4.37;nan
23419;BME280;11882;42.522;27.458;2024-02-21T03:05:12;102022.25;;;4.29;nan
23419;BME280;11882;42.522;27.458;2024-02-21T03:07:40;102018.56;;;4.32;nan
23419;BME280;11882;42.522;27.458;2024-02-21T03:10:08;102025.19;;;4.37;nan
23419;BME280;11882;42.522;27.458;2024-02-21T03:12:36;102020.97;;;4.60;nan
23419;BME280;11882;42.522;27.458;2024-02-21T03:15:04;102019.06;;;4.75;nan
23419;BME280;11882;42.522;27.458;2024-02-21T03:17:33;102019.06;;;4.62;nan
23419;BME280;11882;42.522;27.458;2024-02-21T03:20:01;102017.50;;;4.47;nan
23419;BME280;11882;42.522;27.458;2024-02-21T03:22:30;102025.81;;;4.41;nan
23419;BME280;11882;42.522;27.458;2024-02-21T03:24:58;102031.53;;;4.35;nan
23419;BME280;11882;42.522;27.458;2024-02-21T03:27:25;102031.53;;;4.35;nan
23419;BME280;11882;42.522;27.458;2024-02-21T03:29:52;102025.31;;;4.36;nan
23419;BME280;11882;42.522;27.458;2024-02-21T03:32:20;102022.88;;;4.33;nan
23419;BME280;11882;42.522;27.458;2024-02-21T03:34:48;102028.47;;;4.28;nan
23419;BME280;11882;42.522;27.458;2024-02-21T03:37:15;102028.13;;;4.20;nan
23419;BME280;11882;42.522;27.458;2024-02-21T03:39:43;102033.00;;;4.26;nan
23419;BME280;11882;42.522;27.458;2024-02-21T03:42:10;102032.16;;;4.26;nan
23419;BME280;11882;42.522;27.458;2024-02-21T03:44:37;102034.69;;;4.27;nan
23419;BME280;11882;42.522;27.458;2024-02-21T03:47:04;102034.47;;;4.17;nan
23419;BME280;11882;42.522;27.458;2024-02-21T03:49:32;102031.31;;;4.25;nan
23419;BME280;11882;42.522;27.458;2024-02-21T03:52:00;102031.50;;;4.22;nan
23419;BME280;11882;42.522;27.458;2024-02-21T03:54:28;102028.56;;;4.27;nan
23419;BME280;11882;42.522;27.458;2024-02-21T03:56:55;102032.25;;;4.49;nan
23419;BME280;11882;42.522;27.458;2024-02-21T03:59:22;102027.94;;;4.61;nan
23419;BME280;11882;42.522;27.458;2024-02-21T04:01:51;102020.13;;;4.47;nan
23419;BME280;11882;42.522;27.458;2024-02-21T04:04:19;102030.88;;;4.44;nan
23419;BME280;11882;42.522;27.458;2024-02-21T04:06:46;102027.41;;;4.31;nan
23419;BME280;11882;42.522;27.458;2024-02-21T04:09:15;102032.25;;;4.24;nan
23419;BME280;11882;42.522;27.458;2024-02-21T04:11:43;102031.00;;;4.30;nan
23419;BME280;11882;42.522;27.458;2024-02-21T04:14:10;102035.09;;;4.21;nan
23419;BME280;11882;42.522;27.458;2024-02-21T04:16:38;102024.66;;;4.07;nan
23419;BME280;11882;42.522;27.458;2024-02-21T04:19:05;102030.44;;;3.99;nan
23419;BME280;11882;42.522;27.458;2024-02-21T04:21:32;102036.22;;;4.04;nan
23419;BME280;11882;42.522;27.458;2024-02-21T04:24:00;102028.34;;;4.04;nan
23419;BME280;11882;42.522;27.458;2024-02-21T04:26:30;102028.22;;;4.06;nan
23419;BME280;11882;42.522;27.458;2024-02-21T04:28:57;102024.97;;;4.02;nan
23419;BME280;11882;42.522;27.458;2024-02-21T04:31:24;102025.78;;;4.03;nan
23419;BME280;11882;42.522;27.458;2024-02-21T04:33:52;102031.06;;;4.03;nan
23419;BME280;11882;42.522;27.458;2024-02-21T04:36:19;102032.34;;;4.10;nan
23419;BME280;11882;42.522;27.458;2024-02-21T04:38:46;102028.03;;;4.34;nan
23419;BME280;11882;42.522;27.458;2024-02-21T04:41:14;102037.44;;;4.51;nan
23419;BME280;11882;42.522;27.458;2024-02-21T04:43:43;102043.31;;;4.42;nan
23419;BME280;11882;42.522;27.458;2024-02-21T04:46:10;102044.78;;;4.33;nan
23419;BME280;11882;42.522;27.458;2024-02-21T04:48:37;102057.97;;;4.20;nan
23419;BME280;11882;42.522;27.458;2024-02-21T04:51:04;102053.94;;;4.15;nan
23419;BME280;11882;42.522;27.458;2024-02-21T04:53:31;102062.28;;;4.21;nan
23419;BME280;11882;42.522;27.458;2024-02-21T04:55:59;102065.03;;;4.20;nan
23419;BME280;11882;42.522;27.458;2024-02-21T04:58:26;102070.50;;;4.17;nan
23419;BME280;11882;42.522;27.458;2024-02-21T05:00:55;102076.59;;;4.17;nan
23419;BME280;11882;42.522;27.458;2024-02-21T05:03:22;102062.38;;;4.07;nan
23419;BME280;11882;42.522;27.458;2024-02-21T05:05:49;102062.97;;;3.98;nan
23419;BME280;11882;42.522;27.458;2024-02-21T05:08:16;102058.22;;;3.91;nan
23419;BME280;11882;42.522;27.458;2024-02-21T05:10:44;102055.28;;;3.95;nan
23419;BME280;11882;42.522;27.458;2024-02-21T05:13:11;102043.28;;;4.04;nan
23419;BME280;11882;42.522;27.458;2024-02-21T05:15:38;102040.16;;;4.24;nan
23419;BME280;11882;42.522;27.458;2024-02-21T05:18:07;102050.06;;;4.46;nan
23419;BME280;11882;42.522;27.458;2024-02-21T05:20:34;102043.97;;;4.45;nan
23419;BME280;11882;42.522;27.458;2024-02-21T05:23:01;102047.34;;;4.47;nan
23419;BME280;11882;42.522;27.458;2024-02-21T05:25:28;102048.28;;;4.34;nan
23419;BME280;11882;42.522;27.458;2024-02-21T05:27:56;102044.78;;;4.33;nan
23419;BME280;11882;42.522;27.458;2024-02-21T05:30:27;102055.03;;;4.38;nan
23419;BME280;11882;42.522;27.458;2024-02-21T05:32:55;102054.50;;;4.58;nan
23419;BME280;11882;42.522;27.458;2024-02-21T05:35:26;102061.34;;;4.61;nan
23419;BME280;11882;42.522;27.458;2024-02-21T05:37:54;102068.00;;;4.41;nan
23419;BME280;11882;42.522;27.458;2024-02-21T05:40:21;102071.03;;;4.35;nan
23419;BME280;11882;42.522;27.458;2024-02-21T05:42:48;102074.31;;;4.26;nan
23419;BME280;11882;42.522;27.458;2024-02-21T05:45:16;102080.28;;;4.15;nan
23419;BME280;11882;42.522;27.458;2024-02-21T05:47:44;102080.25;;;4.02;nan
23419;BME280;11882;42.522;27.458;2024-02-21T05:50:11;102079.97;;;4.07;nan
23419;BME280;11882;42.522;27.458;2024-02-21T05:52:40;102079.66;;;4.11;nan
23419;BME280;11882;42.522;27.458;2024-02-21T05:55:07;102085.66;;;4.13;nan
23419;BME280;11882;42.522;27.458;2024-02-21T05:57:35;102088.97;;;4.42;nan
23419;BME280;11882;42.522;27.458;2024-02-21T06:00:04;102088.78;;;4.58;nan
23419;BME280;11882;42.522;27.458;2024-02-21T06:02:32;102085.19;;;4.59;nan
23419;BME280;11882;42.522;27.458;2024-02-21T06:04:59;102083.19;;;4.63;nan
23419;BME280;11882;42.522;27.458;2024-02-21T06:07:26;102087.13;;;5.19;nan
23419;BME280;11882;42.522;27.458;2024-02-21T06:09:55;102090.41;;;5.59;nan
23419;BME280;11882;42.522;27.458;2024-02-21T06:12:22;102101.66;;;5.50;nan
23419;BME280;11882;42.522;27.458;2024-02-21T06:14:49;102100.16;;;5.82;nan
23419;BME280;11882;42.522;27.458;2024-02-21T06:17:16;102102.69;;;6.43;nan
23419;BME280;11882;42.522;27.458;2024-02-21T06:19:44;102101.09;;;6.40;nan
23419;BME280;11882;42.522;27.458;2024-02-21T06:22:12;102100.16;;;6.06;nan
23419;BME280;11882;42.522;27.458;2024-02-21T06:24:39;102090.16;;;5.75;nan
23419;BME280;11882;42.522;27.458;2024-02-21T06:27:08;102100.34;;;5.56;nan
23419;BME280;11882;42.522;27.458;2024-02-21T06:29:37;102103.88;;;5.43;nan
23419;BME280;11882;42.522;27.458;2024-02-21T06:32:04;102107.06;;;5.36;nan
23419;BME280;11882;42.522;27.458;2024-02-21T06:34:32;102102.31;;;5.41;nan
23419;BME280;11882;42.522;27.458;2024-02-21T06:36:59;102097.59;;;5.57;nan
23419;BME280;11882;42.522;27.458;2024-02-21T06:39:26;102096.47;;;5.48;nan
23419;BME280;11882;42.522;27.458;2024-02-21T06:41:54;102100.13;;;5.22;nan
23419;BME280;11882;42.522;27.458;2024-02-21T06:44:23;102098.88;;;5.02;nan
23419;BME280;11882;42.522;27.458;2024-02-21T06:46:51;102105.13;;;4.76;nan
23419;BME280;11882;42.522;27.458;2024-02-21T06:49:18;102105.66;;;4.68;nan
23419;BME280;11882;42.522;27.458;2024-02-21T06:51:45;102111.66;;;4.70;nan
23419;BME280;11882;42.522;27.458;2024-02-21T06:54:12;102110.47;;;4.49;nan
23419;BME280;11882;42.522;27.458;2024-02-21T06:56:40;102115.00;;;4.47;nan
23419;BME280;11882;42.522;27.458;2024-02-21T06:59:07;102116.28;;;4.54;nan
23419;BME280;11882;42.522;27.458;2024-02-21T07:01:36;102111.88;;;4.67;nan
23419;BME280;11882;42.522;27.458;2024-02-21T07:04:03;102116.72;;;4.99;nan
23419;BME280;11882;42.522;27.458;2024-02-21T07:06:30;102116.06;;;5.21;nan
23419;BME280;11882;42.522;27.458;2024-02-21T07:08:57;102119.44;;;5.23;nan
23419;BME280;11882;42.522;27.458;2024-02-21T07:11:25;102120.81;;;5.28;nan
23419;BME280;11882;42.522;27.458;2024-02-21T07:13:52;102118.69;;;5.08;nan
23419;BME280;11882;42.522;27.458;2024-02-21T07:16:19;102121.53;;;5.17;nan
23419;BME280;11882;42.522;27.458;2024-02-21T07:18:48;102116.47;;;5.14;nan
23419;BME280;11882;42.522;27.458;2024-02-21T07:21:15;102115.41;;;5.17;nan
23419;BME280;11882;42.522;27.458;2024-02-21T07:23:42;102106.88;;;5.13;nan
23419;BME280;11882;42.522;27.458;2024-02-21T07:26:09;102109.75;;;5.23;nan
23419;BME280;11882;42.522;27.458;2024-02-21T07:28:36;102118.38;;;5.12;nan
23419;BME280;11882;42.522;27.458;2024-02-21T07:31:03;102117.97;;;5.31;nan
23419;BME280;11882;42.522;27.458;2024-02-21T07:33:31;102122.50;;;5.66;nan
23419;BME280;11882;42.522;27.458;2024-02-21T07:35:59;102116.19;;;5.56;nan
23419;BME280;11882;42.522;27.458;2024-02-21T07:38:27;102118.44;;;5.49;nan
23419;BME280;11882;42.522;27.458;2024-02-21T07:40:54;102114.78;;;5.39;nan
23419;BME280;11882;42.522;27.458;2024-02-21T07:43:21;102113.41;;;5.33;nan
23419;BME280;11882;42.522;27.458;2024-02-21T07:45:49;102118.38;;;5.38;nan
23419;BME280;11882;42.522;27.458;2024-02-21T07:48:16;102120.00;;;5.52;nan
23419;BME280;11882;42.522;27.458;2024-02-21T07:50:44;102119.88;;;5.66;nan
23419;BME280;11882;42.522;27.458;2024-02-21T07:53:15;102112.19;;;6.10;nan
23419;BME280;11882;42.522;27.458;2024-02-21T07:55:42;102109.69;;;6.55;nan
23419;BME280;11882;42.522;27.458;2024-02-21T07:58:09;102104.19;;;6.81;nan
23419;BME280;11882;42.522;27.458;2024-02-21T08:00:36;102107.19;;;7.09;nan
23419;BME280;11882;42.522;27.458;2024-02-21T08:03:04;102104.19;;;6.92;nan
23419;BME280;11882;42.522;27.458;2024-02-21T08:05:34;102110.56;;;6.89;nan
23419;BME280;11882;42.522;27.458;2024-02-21T08:08:01;102108.28;;;7.29;nan
23419;BME280;11882;42.522;27.458;2024-02-21T08:10:30;102111.81;;;7.62;nan
23419;BME280;11882;42.522;27.458;2024-02-21T08:12:57;102106.69;;;7.92;nan
23419;BME280;11882;42.522;27.458;2024-02-21T08:15:24;102112.00;;;8.13;nan
23419;BME280;11882;42.522;27.458;2024-02-21T08:17:55;102105.19;;;7.99;nan
23419;BME280;11882;42.522;27.458;2024-02-21T08:20:25;102107.44;;;7.83;nan
23419;BME280;11882;42.522;27.458;2024-02-21T08:22:52;102098.81;;;8.23;nan
23419;BME280;11882;42.522;27.458;2024-02-21T08:25:19;102102.63;;;8.41;nan
23419;BME280;11882;42.522;27.458;2024-02-21T08:27:48;102108.84;;;8.51;nan
23419;BME280;11882;42.522;27.458;2024-02-21T08:30:17;102107.91;;;8.62;nan
23419;BME280;11882;42.522;27.458;2024-02-21T08:32:44;102102.53;;;8.73;nan
23419;BME280;11882;42.522;27.458;2024-02-21T08:35:11;102107.41;;;8.98;nan
23419;BME280;11882;42.522;27.458;2024-02-21T08:37:39;102100.81;;;9.23;nan
23419;BME280;11882;42.522;27.458;2024-02-21T08:40:07;102107.16;;;9.01;nan
23419;BME280;11882;42.522;27.458;2024-02-21T08:42:35;102113.81;;;8.96;nan
23419;BME280;11882;42.522;27.458;2024-02-21T08:45:04;102114.22;;;8.91;nan
23419;BME280;11882;42.522;27.458;2024-02-21T08:47:32;102113.78;;;9.17;nan
23419;BME280;11882;42.522;27.458;2024-02-21T08:50:01;102106.56;;;9.38;nan
23419;BME280;11882;42.522;27.458;2024-02-21T08:52:31;102105.94;;;9.15;nan
23419;BME280;11882;42.522;27.458;2024-02-21T08:54:58;102106.47;;;9.09;nan
23419;BME280;11882;42.522;27.458;2024-02-21T08:57:26;102105.69;;;8.88;nan
23419;BME280;11882;42.522;27.458;2024-02-21T08:59:53;102108.50;;;8.96;nan
23419;BME280;11882;42.522;27.458;2024-02-21T09:02:22;102105.31;;;9.32;nan
23419;BME280;11882;42.522;27.458;2024-02-21T09:04:49;102111.97;;;9.77;nan
23419;BME280;11882;42.522;27.458;2024-02-21T09:07:16;102104.97;;;9.85;nan
23419;BME280;11882;42.522;27.458;2024-02-21T09:09:44;102103.75;;;10.38;nan
23419;BME280;11882;42.522;27.458;2024-02-21T09:12:11;102100.59;;;11.45;nan
23419;BME280;11882;42.522;27.458;2024-02-21T09:14:41;102092.34;;;12.02;nan
23419;BME280;11882;42.522;27.458;2024-02-21T09:17:08;102089.72;;;12.45;nan
23419;BME280;11882;42.522;27.458;2024-02-21T09:19:37;102098.69;;;12.96;nan
23419;BME280;11882;42.522;27.458;2024-02-21T09:22:04;102090.06;;;12.50;nan
23419;BME280;11882;42.522;27.458;2024-02-21T09:24:31;102087.59;;;12.31;nan
23419;BME280;11882;42.522;27.458;2024-02-21T09:26:58;102095.06;;;12.27;nan
23419;BME280;11882;42.522;27.458;2024-02-21T09:29:25;102087.03;;;12.71;nan
23419;BME280;11882;42.522;27.458;2024-02-21T09:31:53;102088.66;;;12.90;nan
23419;BME280;11882;42.522;27.458;2024-02-21T09:34:20;102087.00;;;12.63;nan
23419;BME280;11882;42.522;27.458;2024-02-21T09:36:48;102086.78;;;12.56;nan
23419;BME280;11882;42.522;27.458;2024-02-21T09:39:16;102083.53;;;12.45;nan
23419;BME280;11882;42.522;27.458;2024-02-21T09:41:47;102087.94;;;12.10;nan
23419;BME280;11882;42.522;27.458;2024-02-21T09:44:16;102084.59;;;11.90;nan
23419;BME280;11882;42.522;27.458;2024-02-21T09:46:51;102087.00;;;12.19;nan
23419;BME280;11882;42.522;27.458;2024-02-21T09:49:29;102081.22;;;12.24;nan
23419;BME280;11882;42.522;27.458;2024-02-21T09:52:00;102081.00;;;12.43;nan
23419;BME280;11882;42.522;27.458;2024-02-21T09:54:33;102083.47;;;12.88;nan
23419;BME280;11882;42.522;27.458;2024-02-21T09:57:00;102070.31;;;12.95;nan
23419;BME280;11882;42.522;27.458;2024-02-21T09:59:28;102074.78;;;13.20;nan
23419;BME280;11882;42.522;27.458;2024-02-21T10:01:57;102071.16;;;13.38;nan
23419;BME280;11882;42.522;27.458;2024-02-21T10:04:26;102071.00;;;13.05;nan
23419;BME280;11882;42.522;27.458;2024-02-21T10:06:53;102073.09;;;12.85;nan
23419;BME280;11882;42.522;27.458;2024-02-21T10:09:23;102071.28;;;12.60;nan
23419;BME280;11882;42.522;27.458;2024-02-21T10:11:53;102065.31;;;12.40;nan
23419;BME280;11882;42.522;27.458;2024-02-21T10:14:21;102067.28;;;12.12;nan
23419;BME280;11882;42.522;27.458;2024-02-21T10:16:48;102065.91;;;12.08;nan
23419;BME280;11882;42.522;27.458;2024-02-21T10:19:18;102064.56;;;12.30;nan
23419;BME280;11882;42.522;27.458;2024-02-21T10:22:01;102057.13;;;12.16;nan
23419;BME280;11882;42.522;27.458;2024-02-21T10:24:31;102052.03;;;11.87;nan
23419;BME280;11882;42.522;27.458;2024-02-21T10:27:01;102048.84;;;11.83;nan
23419;BME280;11882;42.522;27.458;2024-02-21T10:29:29;102043.44;;;11.93;nan
23419;BME280;11882;42.522;27.458;2024-02-21T10:32:04;102039.69;;;11.86;nan
23419;BME280;11882;42.522;27.458;2024-02-21T10:34:32;102037.50;;;11.81;nan
23419;BME280;11882;42.522;27.458;2024-02-21T10:37:01;102028.69;;;12.07;nan
23419;BME280;11882;42.522;27.458;2024-02-21T10:39:31;102033.16;;;12.24;nan
23419;BME280;11882;42.522;27.458;2024-02-21T10:42:00;102024.63;;;12.20;nan
23419;BME280;11882;42.522;27.458;2024-02-21T10:44:28;102018.19;;;12.31;nan
23419;BME280;11882;42.522;27.458;2024-02-21T10:46:57;102022.53;;;12.32;nan
23419;BME280;11882;42.522;27.458;2024-02-21T10:49:25;102011.97;;;12.22;nan
23419;BME280;11882;42.522;27.458;2024-02-21T10:54:44;102011.31;;;12.88;nan
23419;BME280;11882;42.522;27.458;2024-02-21T10:57:13;101999.03;;;13.04;nan
23419;BME280;11882;42.522;27.458;2024-02-21T10:59:41;102000.22;;;13.09;nan
23419;BME280;11882;42.522;27.458;2024-02-21T11:02:09;101991.31;;;13.43;nan
23419;BME280;11882;42.522;27.458;2024-02-21T11:04:37;101996.44;;;13.28;nan
23419;BME280;11882;42.522;27.458;2024-02-21T11:07:05;101988.81;;;12.99;nan
23419;BME280;11882;42.522;27.458;2024-02-21T11:09:33;101986.19;;;13.07;nan
23419;BME280;11882;42.522;27.458;2024-02-21T11:12:04;101988.34;;;13.04;nan
23419;BME280;11882;42.522;27.458;2024-02-21T11:14:32;101984.78;;;12.87;nan
23419;BME280;11882;42.522;27.458;2024-02-21T11:17:01;101978.88;;;12.75;nan
23419;BME280;11882;42.522;27.458;2024-02-21T11:19:30;101979.84;;;13.08;nan
23419;BME280;11882;42.522;27.458;2024-02-21T11:21:57;101966.22;;;13.36;nan
23419;BME280;11882;42.522;27.458;2024-02-21T11:24:28;101968.25;;;13.50;nan
23419;BME280;11882;42.522;27.458;2024-02-21T11:26:54;101970.41;;;13.87;nan
23419;BME280;11882;42.522;27.458;2024-02-21T11:29:26;101967.06;;;14.01;nan
23419;BME280;11882;42.522;27.458;2024-02-21T11:31:55;101967.19;;;14.24;nan
23419;BME280;11882;42.522;27.458;2024-02-21T11:34:22;101960.41;;;14.61;nan
23419;BME280;11882;42.522;27.458;2024-02-21T11:36:49;101961.66;;;14.81;nan
23419;BME280;11882;42.522;27.458;2024-02-21T11:39:21;101956.47;;;14.79;nan
23419;BME280;11882;42.522;27.458;2024-02-21T11:42:00;101946.69;;;14.95;nan
23419;BME280;11882;42.522;27.458;2024-02-21T11:44:29;101941.50;;;14.93;nan
23419;BME280;11882;42.522;27.458;2024-02-21T11:46:56;101944.91;;;14.79;nan
23419;BME280;11882;42.522;27.458;2024-02-21T11:49:25;101952.00;;;14.08;nan
23419;BME280;11882;42.522;27.458;2024-02-21T11:51:58;101936.75;;;14.17;nan
23419;BME280;11882;42.522;27.458;2024-02-21T11:54:26;101941.47;;;13.99;nan
23419;BME280;11882;42.522;27.458;2024-02-21T11:56:53;101939.59;;;14.15;nan
23419;BME280;11882;42.522;27.458;2024-02-21T11:59:20;101934.34;;;14.38;nan
23419;BME280;11882;42.522;27.458;2024-02-21T12:01:49;101935.88;;;14.25;nan
23419;BME280;11882;42.522;27.458;2024-02-21T12:04:17;101931.41;;;14.09;nan
23419;BME280;11882;42.522;27.458;2024-02-21T12:06:46;101933.09;;;14.10;nan
23419;BME280;11882;42.522;27.458;2024-02-21T12:09:14;101923.44;;;13.76;nan
23419;BME280;11882;42.522;27.458;2024-02-21T12:11:41;101927.47;;;13.56;nan
23419;BME280;11882;42.522;27.458;2024-02-21T12:14:09;101923.94;;;13.55;nan
23419;BME280;11882;42.522;27.458;2024-02-21T12:16:36;101913.09;;;13.65;nan
23419;BME280;11882;42.522;27.458;2024-02-21T12:19:05;101914.09;;;13.56;nan
23419;BME280;11882;42.522;27.458;2024-02-21T12:21:34;101906.75;;;13.50;nan
23419;BME280;11882;42.522;27.458;2024-02-21T12:24:11;101908.22;;;13.69;nan
23419;BME280;11882;42.522;27.458;2024-02-21T12:26:39;101909.56;;;13.48;nan
23419;BME280;11882;42.522;27.458;2024-02-21T12:29:06;101902.56;;;13.39;nan
23419;BME280;11882;42.522;27.458;2024-02-21T12:31:35;101902.06;;;13.60;nan
23419;BME280;11882;42.522;27.458;2024-02-21T12:34:02;101897.38;;;13.62;nan
23419;BME280;11882;42.522;27.458;2024-02-21T12:36:31;101890.03;;;13.56;nan
23419;BME280;11882;42.522;27.458;2024-02-21T12:38:58;101891.53;;;13.59;nan
23419;BME280;11882;42.522;27.458;2024-02-21T12:41:27;101888.53;;;13.53;nan
23419;BME280;11882;42.522;27.458;2024-02-21T12:43:55;101888.34;;;13.31;nan
23419;BME280;11882;42.522;27.458;2024-02-21T12:46:23;101889.13;;;12.99;nan
23419;BME280;11882;42.522;27.458;2024-02-21T12:48:50;101888.63;;;13.03;nan
23419;BME280;11882;42.522;27.458;2024-02-21T12:51:17;101886.25;;;12.84;nan
23419;BME280;11882;42.522;27.458;2024-02-21T12:53:48;101893.53;;;12.57;nan
23419;BME280;11882;42.522;27.458;2024-02-21T12:56:15;101893.69;;;12.56;nan
23419;BME280;11882;42.522;27.458;2024-02-21T12:58:42;101896.72;;;12.61;nan
23419;BME280;11882;42.522;27.458;2024-02-21T13:01:10;101885.47;;;12.41;nan
23419;BME280;11882;42.522;27.458;2024-02-21T13:03:37;101885.34;;;12.17;nan
23419;BME280;11882;42.522;27.458;2024-02-21T13:06:05;101882.41;;;12.28;nan
23419;BME280;11882;42.522;27.458;2024-02-21T13:08:32;101890.91;;;12.32;nan
23419;BME280;11882;42.522;27.458;2024-02-21T13:11:02;101894.50;;;12.14;nan
23419;BME280;11882;42.522;27.458;2024-02-21T13:13:29;101895.66;;;12.12;nan
23419;BME280;11882;42.522;27.458;2024-02-21T13:15:57;101896.53;;;12.20;nan